createdAt,value
2022-11-13T00:00:11.794Z,0.00
2022-11-13T00:01:11.959Z,0.00
2022-11-13T00:02:12.171Z,0.00
2022-11-13T00:03:12.321Z,0.00
2022-11-13T00:04:12.496Z,0.00
2022-11-13T00:05:12.660Z,0.00
2022-11-13T00:06:12.836Z,0.00
2022-11-13T00:07:13.080Z,0.00
2022-11-13T00:08:13.171Z,0.00
2022-11-13T00:09:13.356Z,0.00
2022-11-13T00:10:13.514Z,0.00
2022-11-13T00:11:13.689Z,0.00
2022-11-13T00:12:13.874Z,0.00
2022-11-13T00:13:14.034Z,0.00
2022-11-13T00:14:14.242Z,0.00
2022-11-13T00:15:14.374Z,0.00
2022-11-13T00:16:14.544Z,0.00
2022-11-13T00:17:14.717Z,0.00
2022-11-13T00:18:14.896Z,0.00
2022-11-13T00:19:15.111Z,0.00
2022-11-13T00:20:15.251Z,0.00
2022-11-13T00:21:15.408Z,0.00
2022-11-13T00:22:15.584Z,0.00
2022-11-13T00:23:15.747Z,0.00
2022-11-13T00:24:15.938Z,0.00
2022-11-13T00:25:16.096Z,0.00
2022-11-13T00:26:16.276Z,0.00
2022-11-13T00:27:16.452Z,0.00
2022-11-13T00:28:16.615Z,0.00
2022-11-13T00:29:16.796Z,0.00
2022-11-13T00:30:19.562Z,0.00
2022-11-13T00:31:17.139Z,0.00
2022-11-13T00:32:17.326Z,0.00
2022-11-13T00:33:37.907Z,0.00
2022-11-13T00:34:47.178Z,0.00
2022-11-13T00:35:18.813Z,0.00
2022-11-13T00:36:17.971Z,0.00
2022-11-13T00:37:18.191Z,0.00
2022-11-13T00:38:18.331Z,0.00
2022-11-13T00:39:18.489Z,0.00
2022-11-13T00:40:18.673Z,0.00
2022-11-13T00:41:18.833Z,0.00
2022-11-13T00:42:19.054Z,0.00
2022-11-13T00:43:19.174Z,0.00
2022-11-13T00:44:19.348Z,0.00
2022-11-13T00:45:19.504Z,0.00
2022-11-13T00:46:19.684Z,0.00
2022-11-13T00:47:19.860Z,0.00
2022-11-13T00:48:20.022Z,0.00
2022-11-13T00:49:20.191Z,0.00
2022-11-13T00:50:20.376Z,0.00
2022-11-13T00:51:20.541Z,0.00
2022-11-13T00:52:20.732Z,0.00
2022-11-13T00:53:20.892Z,0.00
2022-11-13T00:54:21.099Z,0.00
2022-11-13T00:55:21.258Z,0.00
2022-11-13T00:56:21.424Z,0.00
2022-11-13T00:57:21.604Z,0.00
2022-11-13T00:58:21.774Z,0.00
2022-11-13T00:59:21.933Z,0.00
2022-11-13T01:00:22.109Z,0.00
2022-11-13T01:01:22.339Z,0.00
2022-11-13T01:02:22.469Z,0.00
2022-11-13T01:03:22.636Z,0.00
2022-11-13T01:04:22.817Z,0.00
2022-11-13T01:05:22.985Z,0.00
2022-11-13T01:06:23.178Z,0.00
2022-11-13T01:07:23.375Z,0.00
2022-11-13T01:08:23.506Z,0.00
2022-11-13T01:09:23.685Z,0.00
2022-11-13T01:10:23.860Z,0.00
2022-11-13T01:11:24.056Z,0.00
2022-11-13T01:12:24.196Z,0.00
2022-11-13T01:13:24.358Z,0.00
2022-11-13T01:14:24.565Z,0.00
2022-11-13T01:15:24.749Z,0.00
2022-11-13T01:16:24.901Z,0.00
2022-11-13T01:17:25.079Z,0.00
2022-11-13T01:18:25.504Z,0.00
2022-11-13T01:19:25.422Z,0.00
2022-11-13T01:20:25.608Z,0.00
2022-11-13T01:21:25.782Z,0.00
2022-11-13T01:22:25.944Z,0.00
2022-11-13T01:23:26.118Z,0.00
2022-11-13T01:24:26.293Z,0.00
2022-11-13T01:25:26.469Z,0.00
2022-11-13T01:26:26.667Z,0.00
2022-11-13T01:27:26.789Z,0.00
2022-11-13T01:28:27.309Z,0.00
2022-11-13T01:29:27.121Z,0.00
2022-11-13T01:30:27.321Z,0.00
2022-11-13T01:31:27.470Z,0.00
2022-11-13T01:32:27.645Z,0.00
2022-11-13T01:33:27.833Z,0.00
2022-11-13T01:34:28.002Z,0.00
2022-11-13T01:35:28.177Z,0.00
2022-11-13T01:36:28.334Z,0.00
2022-11-13T01:37:28.504Z,0.00
2022-11-13T01:38:31.889Z,0.00
2022-11-13T01:39:29.859Z,0.00
2022-11-13T01:40:29.054Z,0.00
2022-11-13T01:41:29.204Z,0.00
2022-11-13T01:42:29.395Z,0.00
2022-11-13T01:43:29.527Z,0.00
2022-11-13T01:44:29.933Z,0.00
2022-11-13T01:45:29.867Z,0.00
2022-11-13T01:46:30.050Z,0.00
2022-11-13T01:47:30.197Z,0.00
2022-11-13T01:48:30.527Z,0.00
2022-11-13T01:49:30.595Z,0.00
2022-11-13T01:50:30.748Z,0.00
2022-11-13T01:51:30.906Z,0.00
2022-11-13T01:52:31.077Z,0.00
2022-11-13T01:53:31.218Z,0.00
2022-11-13T01:54:31.387Z,0.00
2022-11-13T01:55:31.550Z,0.00
2022-11-13T01:56:31.748Z,0.00
2022-11-13T01:57:31.917Z,0.00
2022-11-13T01:58:32.059Z,0.00
2022-11-13T01:59:32.237Z,0.00
2022-11-13T02:00:32.389Z,0.00
2022-11-13T02:01:32.596Z,0.00
2022-11-13T02:02:32.782Z,0.00
2022-11-13T02:03:32.927Z,0.00
2022-11-13T02:04:33.081Z,0.00
2022-11-13T02:05:33.244Z,0.00
2022-11-13T02:06:33.420Z,0.00
2022-11-13T02:07:33.570Z,0.00
2022-11-13T02:08:33.740Z,0.00
2022-11-13T02:09:33.921Z,0.00
2022-11-13T02:10:34.085Z,0.00
2022-11-13T02:11:34.292Z,0.00
2022-11-13T02:12:34.441Z,0.00
2022-11-13T02:13:34.571Z,0.00
2022-11-13T02:14:34.775Z,0.00
2022-11-13T02:15:34.922Z,0.00
2022-11-13T02:16:35.112Z,0.00
2022-11-13T02:17:35.260Z,0.00
2022-11-13T02:18:35.422Z,0.00
2022-11-13T02:19:35.583Z,0.00
2022-11-13T02:20:35.745Z,0.00
2022-11-13T02:21:35.920Z,0.00
2022-11-13T02:22:36.075Z,0.00
2022-11-13T02:23:36.235Z,0.00
2022-11-13T02:24:37.846Z,0.00
2022-11-13T02:25:36.617Z,0.00
2022-11-13T02:26:36.737Z,0.00
2022-11-13T02:27:36.920Z,0.00
2022-11-13T02:28:37.094Z,0.00
2022-11-13T02:29:37.249Z,0.00
2022-11-13T02:30:37.430Z,0.00
2022-11-13T02:31:37.574Z,0.00
2022-11-13T02:32:37.742Z,0.00
2022-11-13T02:33:37.889Z,0.00
2022-11-13T02:34:38.054Z,0.00
2022-11-13T02:35:38.249Z,0.00
2022-11-13T02:36:38.408Z,0.00
2022-11-13T02:37:38.572Z,0.00
2022-11-13T02:38:38.719Z,0.00
2022-11-13T02:39:38.891Z,0.00
2022-11-13T02:40:39.060Z,0.00
2022-11-13T02:41:39.226Z,0.00
2022-11-13T02:42:39.383Z,0.00
2022-11-13T02:43:39.534Z,0.00
2022-11-13T02:44:39.700Z,0.00
2022-11-13T02:45:39.878Z,0.00
2022-11-13T02:46:40.034Z,0.00
2022-11-13T02:47:40.219Z,0.00
2022-11-13T02:48:40.381Z,0.00
2022-11-13T02:49:40.554Z,0.00
2022-11-13T02:50:40.714Z,0.00
2022-11-13T02:51:40.899Z,0.00
2022-11-13T02:52:41.113Z,0.00
2022-11-13T02:53:41.253Z,0.00
2022-11-13T02:54:41.432Z,0.00
2022-11-13T02:55:41.585Z,0.00
2022-11-13T02:56:41.749Z,0.00
2022-11-13T02:57:41.906Z,0.00
2022-11-13T02:58:42.096Z,0.00
2022-11-13T02:59:42.272Z,0.00
2022-11-13T03:00:42.428Z,0.00
2022-11-13T03:01:42.639Z,0.00
2022-11-13T03:02:42.767Z,0.00
2022-11-13T03:03:58.648Z,0.00
2022-11-13T03:05:10.756Z,0.00
2022-11-13T03:05:44.413Z,0.00
2022-11-13T03:06:43.526Z,0.00
2022-11-13T03:07:43.646Z,0.00
2022-11-13T03:08:43.808Z,0.00
2022-11-13T03:09:44.002Z,0.00
2022-11-13T03:10:44.208Z,0.00
2022-11-13T03:11:44.367Z,0.00
2022-11-13T03:12:44.521Z,0.00
2022-11-13T03:13:44.688Z,0.00
2022-11-13T03:14:44.856Z,0.00
2022-11-13T03:15:45.063Z,0.00
2022-11-13T03:16:45.226Z,0.00
2022-11-13T03:17:45.372Z,0.00
2022-11-13T03:18:45.570Z,0.00
2022-11-13T03:19:45.729Z,0.00
2022-11-13T03:20:45.892Z,0.00
2022-11-13T03:21:46.072Z,0.00
2022-11-13T03:22:46.236Z,0.00
2022-11-13T03:23:46.405Z,0.00
2022-11-13T03:24:46.559Z,0.00
2022-11-13T03:25:46.710Z,0.00
2022-11-13T03:26:47.123Z,0.00
2022-11-13T03:27:47.036Z,0.00
2022-11-13T03:28:47.205Z,0.00
2022-11-13T03:29:47.354Z,0.00
2022-11-13T03:30:47.523Z,0.00
2022-11-13T03:31:47.742Z,0.00
2022-11-13T03:32:47.893Z,0.00
2022-11-13T03:33:48.082Z,0.00
2022-11-13T03:34:48.263Z,0.00
2022-11-13T03:35:48.412Z,0.00
2022-11-13T03:36:48.613Z,0.00
2022-11-13T03:37:48.760Z,0.00
2022-11-13T03:38:48.959Z,0.00
2022-11-13T03:39:49.116Z,0.00
2022-11-13T03:40:49.299Z,0.00
2022-11-13T03:41:49.459Z,0.00
2022-11-13T03:42:49.626Z,0.00
2022-11-13T03:43:49.798Z,0.00
2022-11-13T03:44:49.966Z,0.00
2022-11-13T03:45:50.172Z,0.00
2022-11-13T03:46:50.335Z,0.00
2022-11-13T03:47:50.475Z,0.00
2022-11-13T03:48:50.673Z,0.00
2022-11-13T03:49:50.804Z,0.00
2022-11-13T03:50:51.007Z,0.00
2022-11-13T03:51:51.160Z,0.00
2022-11-13T03:52:51.352Z,0.00
2022-11-13T03:53:51.558Z,0.00
2022-11-13T03:54:51.706Z,0.00
2022-11-13T03:55:51.876Z,0.00
2022-11-13T03:56:52.027Z,0.00
2022-11-13T03:57:52.193Z,0.00
2022-11-13T03:58:52.372Z,0.00
2022-11-13T03:59:52.545Z,0.00
2022-11-13T04:00:52.705Z,0.00
2022-11-13T04:01:52.873Z,0.00
2022-11-13T04:02:53.009Z,0.00
2022-11-13T04:03:53.177Z,0.00
2022-11-13T04:04:53.359Z,0.00
2022-11-13T04:05:53.513Z,0.00
2022-11-13T04:06:53.758Z,0.00
2022-11-13T04:07:53.862Z,0.00
2022-11-13T04:08:54.014Z,0.00
2022-11-13T04:09:54.218Z,0.00
2022-11-13T04:10:54.330Z,0.00
2022-11-13T04:11:54.528Z,0.00
2022-11-13T04:12:54.692Z,0.00
2022-11-13T04:13:54.860Z,0.00
2022-11-13T04:14:55.042Z,0.00
2022-11-13T04:15:55.208Z,0.00
2022-11-13T04:16:55.366Z,0.00
2022-11-13T04:17:55.551Z,0.00
2022-11-13T04:18:55.715Z,0.00
2022-11-13T04:19:55.868Z,0.00
2022-11-13T04:20:56.032Z,0.00
2022-11-13T04:21:56.218Z,0.00
2022-11-13T04:22:56.418Z,0.00
2022-11-13T04:23:56.592Z,0.00
2022-11-13T04:24:56.733Z,0.00
2022-11-13T04:25:56.899Z,0.00
2022-11-13T04:26:57.060Z,0.00
2022-11-13T04:27:57.222Z,0.00
2022-11-13T04:28:57.386Z,0.00
2022-11-13T04:29:57.545Z,0.00
2022-11-13T04:30:57.725Z,0.00
2022-11-13T04:31:57.896Z,0.00
2022-11-13T04:32:58.052Z,0.00
2022-11-13T04:33:58.240Z,0.00
2022-11-13T04:34:58.387Z,0.00
2022-11-13T04:35:58.577Z,0.00
2022-11-13T04:36:58.737Z,0.00
2022-11-13T04:37:58.921Z,0.00
2022-11-13T04:38:59.341Z,0.00
2022-11-13T04:39:59.282Z,0.00
2022-11-13T04:40:59.420Z,0.00
2022-11-13T04:41:59.588Z,0.00
2022-11-13T04:42:59.760Z,0.00
2022-11-13T04:43:59.918Z,0.00
2022-11-13T04:45:00.089Z,0.00
2022-11-13T04:46:00.240Z,0.00
2022-11-13T04:47:00.395Z,0.00
2022-11-13T04:48:00.560Z,0.00
2022-11-13T04:49:00.720Z,0.00
2022-11-13T04:50:00.891Z,0.00
2022-11-13T04:51:01.051Z,0.00
2022-11-13T04:52:01.211Z,0.00
2022-11-13T04:53:01.394Z,0.00
2022-11-13T04:54:01.576Z,0.00
2022-11-13T04:55:01.734Z,0.00
2022-11-13T04:56:01.900Z,0.00
2022-11-13T04:57:02.068Z,0.00
2022-11-13T04:58:02.221Z,0.00
2022-11-13T04:59:02.391Z,0.00
2022-11-13T05:00:02.556Z,0.00
2022-11-13T05:01:02.715Z,0.00
2022-11-13T05:02:02.936Z,0.00
2022-11-13T05:03:03.042Z,0.00
2022-11-13T05:04:03.233Z,0.00
2022-11-13T05:05:05.168Z,0.00
2022-11-13T05:06:03.557Z,0.00
2022-11-13T05:07:03.788Z,0.00
2022-11-13T05:08:03.926Z,0.00
2022-11-13T05:09:04.106Z,0.00
2022-11-13T05:10:04.246Z,0.00
2022-11-13T05:11:04.443Z,0.00
2022-11-13T05:12:04.589Z,0.00
2022-11-13T05:13:04.776Z,0.00
2022-11-13T05:14:04.981Z,0.00
2022-11-13T05:15:05.120Z,0.00
2022-11-13T05:16:05.322Z,0.00
2022-11-13T05:17:05.475Z,0.00
2022-11-13T05:18:05.650Z,0.00
2022-11-13T05:19:05.816Z,0.00
2022-11-13T05:20:05.975Z,0.00
2022-11-13T05:21:06.135Z,0.00
2022-11-13T05:22:06.290Z,0.00
2022-11-13T05:23:06.468Z,0.00
2022-11-13T05:24:06.659Z,0.00
2022-11-13T05:25:06.830Z,0.00
2022-11-13T05:26:06.978Z,0.00
2022-11-13T05:27:07.163Z,0.00
2022-11-13T05:28:07.329Z,0.00
2022-11-13T05:29:07.509Z,0.00
2022-11-13T05:30:07.700Z,0.00
2022-11-13T05:31:07.849Z,0.00
2022-11-13T05:32:08.042Z,0.00
2022-11-13T05:33:08.175Z,0.00
2022-11-13T05:34:08.333Z,0.00
2022-11-13T05:35:08.510Z,0.00
2022-11-13T05:36:08.661Z,0.00
2022-11-13T05:37:08.841Z,0.00
2022-11-13T05:38:08.991Z,0.00
2022-11-13T05:39:09.152Z,0.00
2022-11-13T05:40:09.312Z,0.00
2022-11-13T05:41:09.472Z,0.00
2022-11-13T05:42:09.643Z,0.00
2022-11-13T05:43:09.792Z,0.00
2022-11-13T05:44:09.970Z,0.00
2022-11-13T05:45:10.112Z,0.00
2022-11-13T05:46:10.281Z,0.00
2022-11-13T05:47:10.483Z,0.00
2022-11-13T05:48:10.637Z,0.00
2022-11-13T05:49:10.795Z,0.00
2022-11-13T05:50:10.957Z,0.00
2022-11-13T05:51:11.123Z,0.00
2022-11-13T05:52:11.292Z,0.00
2022-11-13T05:53:11.455Z,0.00
2022-11-13T05:54:11.609Z,0.00
2022-11-13T05:55:11.756Z,0.00
2022-11-13T05:56:11.956Z,0.00
2022-11-13T05:57:12.115Z,0.00
2022-11-13T05:58:12.298Z,0.00
2022-11-13T05:59:12.446Z,0.00
2022-11-13T06:00:12.597Z,0.00
2022-11-13T06:01:12.786Z,0.00
2022-11-13T06:02:13.023Z,0.00
2022-11-13T06:03:13.151Z,0.00
2022-11-13T06:04:13.313Z,0.00
2022-11-13T06:05:13.465Z,0.00
2022-11-13T06:06:13.617Z,0.00
2022-11-13T06:07:13.838Z,0.00
2022-11-13T06:08:13.949Z,0.00
2022-11-13T06:09:14.110Z,0.00
2022-11-13T06:10:14.279Z,0.00
2022-11-13T06:11:14.421Z,0.00
2022-11-13T06:12:14.588Z,0.00
2022-11-13T06:13:14.763Z,0.00
2022-11-13T06:14:14.910Z,0.00
2022-11-13T06:15:15.072Z,0.00
2022-11-13T06:16:15.227Z,0.00
2022-11-13T06:17:15.417Z,0.00
2022-11-13T06:18:15.609Z,0.00
2022-11-13T06:19:15.761Z,0.00
2022-11-13T06:20:15.941Z,0.00
2022-11-13T06:21:16.096Z,0.00
2022-11-13T06:22:16.293Z,0.00
2022-11-13T06:23:16.423Z,0.00
2022-11-13T06:24:16.589Z,0.00
2022-11-13T06:25:16.732Z,4.00
2022-11-13T06:26:16.906Z,4.00
2022-11-13T06:27:17.109Z,4.00
2022-11-13T06:28:17.253Z,4.00
2022-11-13T06:29:17.451Z,4.00
2022-11-13T06:30:17.623Z,4.00
2022-11-13T06:31:17.796Z,4.00
2022-11-13T06:32:17.953Z,0.00
2022-11-13T06:33:18.118Z,0.00
2022-11-13T06:34:18.294Z,4.00
2022-11-13T06:35:18.485Z,4.00
2022-11-13T06:36:18.657Z,4.00
2022-11-13T06:37:18.813Z,4.00
2022-11-13T06:38:18.967Z,4.00
2022-11-13T06:39:19.176Z,0.00
2022-11-13T06:40:19.319Z,0.00
2022-11-13T06:41:19.489Z,4.00
2022-11-13T06:42:19.651Z,4.00
2022-11-13T06:43:19.803Z,4.00
2022-11-13T06:44:19.960Z,4.00
2022-11-13T06:45:20.138Z,4.00
2022-11-13T06:46:20.328Z,4.00
2022-11-13T06:47:20.480Z,4.00
2022-11-13T06:48:20.663Z,4.00
2022-11-13T06:49:20.810Z,4.00
2022-11-13T06:50:20.981Z,4.00
2022-11-13T06:51:21.177Z,4.00
2022-11-13T06:52:21.325Z,4.00
2022-11-13T06:53:21.511Z,4.00
2022-11-13T06:54:21.688Z,4.00
2022-11-13T06:55:21.838Z,4.00
2022-11-13T06:56:22.021Z,4.00
2022-11-13T06:57:22.173Z,8.00
2022-11-13T06:58:22.342Z,8.00
2022-11-13T06:59:22.562Z,8.00
2022-11-13T07:00:22.684Z,8.00
2022-11-13T07:01:23.001Z,8.00
2022-11-13T07:02:23.002Z,8.00
2022-11-13T07:03:23.168Z,8.00
2022-11-13T07:04:23.323Z,8.00
2022-11-13T07:05:23.494Z,8.00
2022-11-13T07:06:23.677Z,8.00
2022-11-13T07:07:23.908Z,8.00
2022-11-13T07:08:23.998Z,8.00
2022-11-13T07:09:24.155Z,12.00
2022-11-13T07:10:24.335Z,8.00
2022-11-13T07:11:24.488Z,8.00
2022-11-13T07:12:24.663Z,8.00
2022-11-13T07:13:24.827Z,12.00
2022-11-13T07:14:24.986Z,12.00
2022-11-13T07:15:25.169Z,12.00
2022-11-13T07:16:34.700Z,12.00
2022-11-13T07:17:26.508Z,12.00
2022-11-13T07:18:25.996Z,8.00
2022-11-13T07:19:25.829Z,12.00
2022-11-13T07:20:26.024Z,8.00
2022-11-13T07:21:26.169Z,8.00
2022-11-13T07:22:26.337Z,8.00
2022-11-13T07:23:26.498Z,8.00
2022-11-13T07:24:26.663Z,8.00
2022-11-13T07:25:26.863Z,8.00
2022-11-13T07:26:27.033Z,8.00
2022-11-13T07:27:27.211Z,12.00
2022-11-13T07:28:27.704Z,8.00
2022-11-13T07:29:27.791Z,8.00
2022-11-13T07:30:27.718Z,8.00
2022-11-13T07:31:27.865Z,8.00
2022-11-13T07:32:28.042Z,8.00
2022-11-13T07:33:28.197Z,8.00
2022-11-13T07:34:28.402Z,8.00
2022-11-13T07:35:28.542Z,12.00
2022-11-13T07:36:28.721Z,12.00
2022-11-13T07:37:28.914Z,8.00
2022-11-13T07:38:29.387Z,12.00
2022-11-13T07:39:29.238Z,12.00
2022-11-13T07:40:29.480Z,12.00
2022-11-13T07:41:29.586Z,12.00
2022-11-13T07:42:29.767Z,12.00
2022-11-13T07:43:29.937Z,12.00
2022-11-13T07:44:54.640Z,12.00
2022-11-13T07:45:31.263Z,12.00
2022-11-13T07:46:30.425Z,12.00
2022-11-13T07:47:30.638Z,12.00
2022-11-13T07:48:31.027Z,16.00
2022-11-13T07:49:30.979Z,12.00
2022-11-13T07:50:31.137Z,12.00
2022-11-13T07:51:31.306Z,12.00
2022-11-13T07:52:31.479Z,16.00
2022-11-13T07:53:31.657Z,16.00
2022-11-13T07:54:31.855Z,16.00
2022-11-13T07:55:32.023Z,16.00
2022-11-13T07:56:32.195Z,16.00
2022-11-13T07:57:32.574Z,12.00
2022-11-13T07:58:40.515Z,16.00
2022-11-13T07:59:33.740Z,16.00
2022-11-13T08:00:35.620Z,16.00
2022-11-13T08:01:33.828Z,16.00
2022-11-13T08:02:33.205Z,16.00
2022-11-13T08:03:33.395Z,16.00
2022-11-13T08:04:33.551Z,16.00
2022-11-13T08:05:33.733Z,16.00
2022-11-13T08:06:33.899Z,16.00
2022-11-13T08:07:34.082Z,16.00
2022-11-13T08:08:34.255Z,20.00
2022-11-13T08:09:34.428Z,16.00
2022-11-13T08:10:34.596Z,16.00
2022-11-13T08:11:34.776Z,20.00
2022-11-13T08:12:34.954Z,16.00
2022-11-13T08:13:35.133Z,20.00
2022-11-13T08:14:35.308Z,24.00
2022-11-13T08:15:35.497Z,24.00
2022-11-13T08:16:35.634Z,24.00
2022-11-13T08:17:35.838Z,24.00
2022-11-13T08:18:35.975Z,24.00
2022-11-13T08:19:36.175Z,24.00
2022-11-13T08:20:36.325Z,88.00
2022-11-13T08:21:36.506Z,96.00
2022-11-13T08:22:36.717Z,104.00
2022-11-13T08:23:36.875Z,108.00
2022-11-13T08:24:37.017Z,112.00
2022-11-13T08:25:37.217Z,108.00
2022-11-13T08:26:37.378Z,108.00
2022-11-13T08:27:37.576Z,112.00
2022-11-13T08:28:37.759Z,116.00
2022-11-13T08:29:37.940Z,116.00
2022-11-13T08:30:38.102Z,116.00
2022-11-13T08:31:38.267Z,116.00
2022-11-13T08:32:38.439Z,116.00
2022-11-13T08:33:38.629Z,116.00
2022-11-13T08:34:38.768Z,116.00
2022-11-13T08:35:38.953Z,116.00
2022-11-13T08:36:39.112Z,120.00
2022-11-13T08:37:39.319Z,124.00
2022-11-13T08:38:39.490Z,128.00
2022-11-13T08:39:39.652Z,124.00
2022-11-13T08:40:39.826Z,124.00
2022-11-13T08:41:40.006Z,128.00
2022-11-13T08:42:40.160Z,128.00
2022-11-13T08:43:40.365Z,128.00
2022-11-13T08:44:40.502Z,132.00
2022-11-13T08:45:40.663Z,132.00
2022-11-13T08:46:40.826Z,140.00
2022-11-13T08:47:41.021Z,140.00
2022-11-13T08:48:41.202Z,140.00
2022-11-13T08:49:41.375Z,136.00
2022-11-13T08:50:41.564Z,132.00
2022-11-13T08:51:41.723Z,128.00
2022-11-13T08:52:41.887Z,128.00
2022-11-13T08:53:42.053Z,128.00
2022-11-13T08:54:42.219Z,128.00
2022-11-13T08:55:42.442Z,128.00
2022-11-13T08:56:42.555Z,132.00
2022-11-13T08:57:42.727Z,132.00
2022-11-13T08:58:42.887Z,136.00
2022-11-13T08:59:43.071Z,132.00
2022-11-13T09:00:43.234Z,136.00
2022-11-13T09:01:43.403Z,136.00
2022-11-13T09:02:43.567Z,140.00
2022-11-13T09:03:43.744Z,140.00
2022-11-13T09:04:43.930Z,140.00
2022-11-13T09:05:44.097Z,144.00
2022-11-13T09:06:44.317Z,140.00
2022-11-13T09:07:44.419Z,144.00
2022-11-13T09:08:44.592Z,144.00
2022-11-13T09:09:44.759Z,144.00
2022-11-13T09:10:44.959Z,144.00
2022-11-13T09:11:45.088Z,144.00
2022-11-13T09:12:45.257Z,144.00
2022-11-13T09:13:49.460Z,148.00
2022-11-13T09:14:46.578Z,148.00
2022-11-13T09:15:45.750Z,148.00
2022-11-13T09:16:45.923Z,152.00
2022-11-13T09:17:46.111Z,152.00
2022-11-13T09:18:46.257Z,156.00
2022-11-13T09:19:46.436Z,156.00
2022-11-13T09:20:46.612Z,152.00
2022-11-13T09:21:46.823Z,148.00
2022-11-13T09:22:46.954Z,144.00
2022-11-13T09:23:47.128Z,144.00
2022-11-13T09:24:47.292Z,144.00
2022-11-13T09:25:47.474Z,144.00
2022-11-13T09:26:47.634Z,144.00
2022-11-13T09:27:47.813Z,140.00
2022-11-13T09:28:47.963Z,144.00
2022-11-13T09:29:51.491Z,148.00
2022-11-13T09:30:49.316Z,148.00
2022-11-13T09:31:48.475Z,152.00
2022-11-13T09:32:48.636Z,156.00
2022-11-13T09:33:48.882Z,164.00
2022-11-13T09:34:49.033Z,172.00
2022-11-13T09:35:49.177Z,176.00
2022-11-13T09:36:49.327Z,176.00
2022-11-13T09:37:49.526Z,176.00
2022-11-13T09:38:49.670Z,184.00
2022-11-13T09:39:49.831Z,180.00
2022-11-13T09:40:49.978Z,192.00
2022-11-13T09:41:50.162Z,148.00
2022-11-13T09:42:50.371Z,200.00
2022-11-13T09:43:53.076Z,204.00
2022-11-13T09:44:51.699Z,204.00
2022-11-13T09:45:50.866Z,204.00
2022-11-13T09:46:51.052Z,196.00
2022-11-13T09:47:51.449Z,192.00
2022-11-13T09:48:51.370Z,196.00
2022-11-13T09:49:51.564Z,200.00
2022-11-13T09:50:51.731Z,208.00
2022-11-13T09:51:51.919Z,212.00
2022-11-13T09:52:52.099Z,212.00
2022-11-13T09:53:52.242Z,208.00
2022-11-13T09:54:52.402Z,216.00
2022-11-13T09:55:52.569Z,212.00
2022-11-13T09:56:52.723Z,212.00
2022-11-13T09:57:52.907Z,208.00
2022-11-13T09:58:53.060Z,208.00
2022-11-13T09:59:53.249Z,220.00
2022-11-13T10:00:53.414Z,236.00
2022-11-13T10:01:53.592Z,240.00
2022-11-13T10:02:53.733Z,248.00
2022-11-13T10:04:01.502Z,260.00
2022-11-13T10:04:55.332Z,272.00
2022-11-13T10:05:54.274Z,284.00
2022-11-13T10:06:54.483Z,284.00
2022-11-13T10:07:54.615Z,280.00
2022-11-13T10:08:54.779Z,276.00
2022-11-13T10:09:54.955Z,276.00
2022-11-13T10:10:56.196Z,284.00
2022-11-13T10:11:55.297Z,288.00
2022-11-13T10:12:55.480Z,296.00
2022-11-13T10:13:55.706Z,304.00
2022-11-13T10:14:55.827Z,316.00
2022-11-13T10:15:55.996Z,328.00
2022-11-13T10:16:56.121Z,320.00
2022-11-13T10:17:56.952Z,308.00
2022-11-13T10:18:56.488Z,304.00
2022-11-13T10:19:56.706Z,300.00
2022-11-13T10:20:56.804Z,304.00
2022-11-13T10:22:07.699Z,300.00
2022-11-13T10:22:58.148Z,296.00
2022-11-13T10:23:57.313Z,292.00
2022-11-13T10:24:57.510Z,284.00
2022-11-13T10:25:57.631Z,300.00
2022-11-13T10:26:57.808Z,300.00
2022-11-13T10:27:58.074Z,304.00
2022-11-13T10:28:58.191Z,304.00
2022-11-13T10:29:58.313Z,312.00
2022-11-13T10:30:58.482Z,316.00
2022-11-13T10:31:58.666Z,320.00
2022-11-13T10:32:58.814Z,344.00
2022-11-13T10:33:59.001Z,364.00
2022-11-13T10:34:59.181Z,192.00
2022-11-13T10:35:59.326Z,324.00
2022-11-13T10:36:59.511Z,444.00
2022-11-13T10:38:04.718Z,436.00
2022-11-13T10:39:00.860Z,436.00
2022-11-13T10:40:00.081Z,472.00
2022-11-13T10:41:00.245Z,448.00
2022-11-13T10:42:00.406Z,400.00
2022-11-13T10:43:00.620Z,392.00
2022-11-13T10:44:00.738Z,376.00
2022-11-13T10:45:00.886Z,368.00
2022-11-13T10:46:01.074Z,372.00
2022-11-13T10:47:01.256Z,360.00
2022-11-13T10:48:04.744Z,356.00
2022-11-13T10:49:01.566Z,360.00
2022-11-13T10:50:01.739Z,364.00
2022-11-13T10:51:01.908Z,360.00
2022-11-13T10:52:02.104Z,372.00
2022-11-13T10:53:02.268Z,380.00
2022-11-13T10:54:02.428Z,376.00
2022-11-13T10:55:02.579Z,380.00
2022-11-13T10:56:02.768Z,376.00
2022-11-13T10:57:02.938Z,384.00
2022-11-13T10:58:03.145Z,384.00
2022-11-13T10:59:03.285Z,380.00
2022-11-13T11:00:03.501Z,332.00
2022-11-13T11:01:03.673Z,348.00
2022-11-13T11:02:03.831Z,356.00
2022-11-13T11:03:04.000Z,368.00
2022-11-13T11:04:04.191Z,360.00
2022-11-13T11:05:04.332Z,368.00
2022-11-13T11:06:04.531Z,372.00
2022-11-13T11:07:19.626Z,388.00
2022-11-13T11:08:05.913Z,404.00
2022-11-13T11:09:05.025Z,364.00
2022-11-13T11:10:05.243Z,368.00
2022-11-13T11:11:05.398Z,388.00
2022-11-13T11:12:05.542Z,404.00
2022-11-13T11:13:05.704Z,428.00
2022-11-13T11:14:05.874Z,472.00
2022-11-13T11:15:06.029Z,508.00
2022-11-13T11:16:06.231Z,516.00
2022-11-13T11:17:06.370Z,552.00
2022-11-13T11:18:06.567Z,632.00
2022-11-13T11:19:06.738Z,696.00
2022-11-13T11:20:06.888Z,684.00
2022-11-13T11:21:07.118Z,748.00
2022-11-13T11:22:07.251Z,772.00
2022-11-13T11:23:07.394Z,796.00
2022-11-13T11:24:07.577Z,940.00
2022-11-13T11:25:07.749Z,984.00
2022-11-13T11:26:07.928Z,896.00
2022-11-13T11:27:08.078Z,916.00
2022-11-13T11:28:08.247Z,1272.00
2022-11-13T11:29:08.411Z,1368.00
2022-11-13T11:30:08.589Z,1328.00
2022-11-13T11:31:08.770Z,1272.00
2022-11-13T11:32:08.945Z,1372.00
2022-11-13T11:33:09.116Z,1756.00
2022-11-13T11:34:09.302Z,1376.00
2022-11-13T11:35:09.460Z,1784.00
2022-11-13T11:36:09.681Z,1076.00
2022-11-13T11:37:09.791Z,1112.00
2022-11-13T11:38:09.971Z,1140.00
2022-11-13T11:39:10.136Z,1228.00
2022-11-13T11:40:10.293Z,1340.00
2022-11-13T11:41:16.007Z,1212.00
2022-11-13T11:42:11.633Z,1360.00
2022-11-13T11:43:10.801Z,1544.00
2022-11-13T11:44:10.995Z,1684.00
2022-11-13T11:45:11.125Z,2712.00
2022-11-13T11:46:11.322Z,1084.00
2022-11-13T11:47:11.486Z,1116.00
2022-11-13T11:48:11.675Z,1268.00
2022-11-13T11:49:11.845Z,1360.00
2022-11-13T11:50:12.025Z,1440.00
2022-11-13T11:51:12.214Z,1792.00
2022-11-13T11:52:12.375Z,1348.00
2022-11-13T11:53:12.546Z,1564.00
2022-11-13T11:54:12.724Z,1432.00
2022-11-13T11:55:12.877Z,2232.00
2022-11-13T11:56:13.077Z,1396.00
2022-11-13T11:57:13.238Z,1336.00
2022-11-13T11:58:13.420Z,2824.00
2022-11-13T11:59:13.587Z,2772.00
2022-11-13T12:00:13.804Z,1644.00
2022-11-13T12:01:13.920Z,1976.00
2022-11-13T12:02:14.085Z,2576.00
2022-11-13T12:03:14.259Z,2664.00
2022-11-13T12:04:14.449Z,2776.00
2022-11-13T12:05:19.743Z,2564.00
2022-11-13T12:06:15.839Z,2020.00
2022-11-13T12:07:15.061Z,1472.00
2022-11-13T12:08:15.180Z,2624.00
2022-11-13T12:09:15.354Z,2380.00
2022-11-13T12:10:15.541Z,2580.00
2022-11-13T12:11:15.715Z,2776.00
2022-11-13T12:12:15.909Z,2732.00
2022-11-13T12:13:16.041Z,2556.00
2022-11-13T12:14:16.214Z,2700.00
2022-11-13T12:15:16.388Z,2632.00
2022-11-13T12:16:19.852Z,2548.00
2022-11-13T12:17:17.744Z,1648.00
2022-11-13T12:18:16.913Z,1576.00
2022-11-13T12:19:17.095Z,1092.00
2022-11-13T12:20:17.267Z,2664.00
2022-11-13T12:21:17.444Z,2440.00
2022-11-13T12:22:17.613Z,2716.00
2022-11-13T12:23:17.793Z,2768.00
2022-11-13T12:24:17.962Z,2704.00
2022-11-13T12:25:18.137Z,2760.00
2022-11-13T12:26:18.308Z,2756.00
2022-11-13T12:27:18.503Z,2804.00
2022-11-13T12:28:18.644Z,2776.00
2022-11-13T12:29:18.826Z,2824.00
2022-11-13T12:30:18.987Z,2816.00
2022-11-13T12:31:19.176Z,2768.00
2022-11-13T12:32:19.348Z,2544.00
2022-11-13T12:33:19.539Z,2024.00
2022-11-13T12:34:19.709Z,2568.00
2022-11-13T12:35:19.884Z,2536.00
2022-11-13T12:36:20.049Z,2628.00
2022-11-13T12:37:20.224Z,2780.00
2022-11-13T12:38:20.402Z,2724.00
2022-11-13T12:39:20.570Z,2780.00
2022-11-13T12:40:20.730Z,1100.00
2022-11-13T12:41:20.892Z,1616.00
2022-11-13T12:42:21.066Z,2664.00
2022-11-13T12:43:21.242Z,2244.00
2022-11-13T12:44:21.412Z,2524.00
2022-11-13T12:45:21.586Z,2500.00
2022-11-13T12:46:21.733Z,1036.00
2022-11-13T12:47:21.924Z,2608.00
2022-11-13T12:48:22.097Z,2468.00
2022-11-13T12:49:22.261Z,2560.00
2022-11-13T12:50:25.133Z,2636.00
2022-11-13T12:51:23.608Z,2696.00
2022-11-13T12:52:22.768Z,2644.00
2022-11-13T12:53:22.938Z,2548.00
2022-11-13T12:54:23.094Z,2540.00
2022-11-13T12:55:23.246Z,2464.00
2022-11-13T12:56:23.407Z,2580.00
2022-11-13T12:57:27.227Z,2572.00